Terminal Aerodrome Forecast
Issued by NWS North Platte, NE

Home | Current Version | Previous Version | Text Only | Print | Product List | Glossary Off
Versions: 1 2 3 4 5 6 7 8 9 10 11 12 13

000
FTUS43 KLBF 221720
TAFVTN
TAF
KVTN 221720Z 2218/2318 11009KT P6SM FEW250
     FM230300 12010KT P6SM VCTS BKN200CB
     FM231000 16009KT P6SM SCT250 WS020/19035KT
     FM231100 16009KT P6SM SCT250
     FM231500 18013G20KT P6SM FEW250=

USA.gov is the U.S. government's official web portal to all federal, state and local government web resources and services.